sensor_id;sensor_type;location;lat;lon;timestamp;pressure;altitude;pressure_sealevel;temperature;humidity
29371;BME280;16357;52.188;7.838;2023-03-01T00:03:29;102397.00;;;0.92;52.74
29371;BME280;16357;52.188;7.838;2023-03-01T00:05:56;102397.94;;;0.91;52.83
29371;BME280;16357;52.188;7.838;2023-03-01T00:08:22;102397.06;;;0.90;53.16
29371;BME280;16357;52.188;7.838;2023-03-01T00:10:48;102402.34;;;0.90;53.15
29371;BME280;16357;52.188;7.838;2023-03-01T00:13:15;102395.28;;;0.91;53.22
29371;BME280;16357;52.188;7.838;2023-03-01T00:15:41;102395.28;;;0.91;53.02
29371;BME280;16357;52.188;7.838;2023-03-01T00:18:08;102391.81;;;0.88;52.81
29371;BME280;16357;52.188;7.838;2023-03-01T00:20:34;102380.41;;;0.88;53.19
29371;BME280;16357;52.188;7.838;2023-03-01T00:23:01;102381.34;;;0.87;53.05
29371;BME280;16357;52.188;7.838;2023-03-01T00:25:27;102389.31;;;0.85;53.20
29371;BME280;16357;52.188;7.838;2023-03-01T00:27:53;102383.28;;;0.82;53.08
29371;BME280;16357;52.188;7.838;2023-03-01T00:30:20;102388.59;;;0.80;53.26
29371;BME280;16357;52.188;7.838;2023-03-01T00:32:46;102387.75;;;0.80;53.56
29371;BME280;16357;52.188;7.838;2023-03-01T00:35:12;102385.09;;;0.80;53.39
29371;BME280;16357;52.188;7.838;2023-03-01T00:37:39;102383.34;;;0.79;53.19
29371;BME280;16357;52.188;7.838;2023-03-01T00:40:07;102396.56;;;0.79;53.31
29371;BME280;16357;52.188;7.838;2023-03-01T00:42:34;102391.28;;;0.79;53.53
29371;BME280;16357;52.188;7.838;2023-03-01T00:45:00;102395.78;;;0.77;53.09
29371;BME280;16357;52.188;7.838;2023-03-01T00:47:29;102400.16;;;0.76;53.28
29371;BME280;16357;52.188;7.838;2023-03-01T00:49:55;102397.53;;;0.76;53.47
29371;BME280;16357;52.188;7.838;2023-03-01T00:52:22;102396.66;;;0.76;53.70
29371;BME280;16357;52.188;7.838;2023-03-01T00:54:48;102397.47;;;0.78;53.83
29371;BME280;16357;52.188;7.838;2023-03-01T00:57:14;102399.97;;;0.82;53.45
29371;BME280;16357;52.188;7.838;2023-03-01T00:59:41;102400.72;;;0.86;53.51
29371;BME280;16357;52.188;7.838;2023-03-01T01:02:07;102404.94;;;0.92;54.01
29371;BME280;16357;52.188;7.838;2023-03-01T01:04:33;102396.81;;;0.98;53.59
29371;BME280;16357;52.188;7.838;2023-03-01T01:07:00;102391.41;;;1.01;53.87
29371;BME280;16357;52.188;7.838;2023-03-01T01:09:26;102378.91;;;1.06;53.75
29371;BME280;16357;52.188;7.838;2023-03-01T01:11:53;102383.13;;;1.10;53.50
29371;BME280;16357;52.188;7.838;2023-03-01T01:14:19;102381.19;;;1.15;53.74
29371;BME280;16357;52.188;7.838;2023-03-01T01:16:46;102379.38;;;1.17;53.53
29371;BME280;16357;52.188;7.838;2023-03-01T01:19:12;102375.75;;;1.20;53.44
29371;BME280;16357;52.188;7.838;2023-03-01T01:21:40;102383.56;;;1.23;53.53
29371;BME280;16357;52.188;7.838;2023-03-01T01:24:09;102375.59;;;1.24;53.41
29371;BME280;16357;52.188;7.838;2023-03-01T01:26:35;102374.66;;;1.25;53.01
29371;BME280;16357;52.188;7.838;2023-03-01T01:29:04;102374.66;;;1.25;53.11
29371;BME280;16357;52.188;7.838;2023-03-01T01:31:31;102373.78;;;1.26;52.99
29371;BME280;16357;52.188;7.838;2023-03-01T01:33:59;102367.53;;;1.27;53.01
29371;BME280;16357;52.188;7.838;2023-03-01T01:36:26;102362.25;;;1.27;53.08
29371;BME280;16357;52.188;7.838;2023-03-01T01:38:53;102364.91;;;1.27;53.05
29371;BME280;16357;52.188;7.838;2023-03-01T01:41:21;102351.69;;;1.27;53.03
29371;BME280;16357;52.188;7.838;2023-03-01T01:44:11;102354.31;;;1.27;52.93
29371;BME280;16357;52.188;7.838;2023-03-01T01:46:39;102350.81;;;1.27;53.02
29371;BME280;16357;52.188;7.838;2023-03-01T01:49:23;102350.75;;;1.28;52.83
29371;BME280;16357;52.188;7.838;2023-03-01T01:51:56;102344.63;;;1.28;53.15
29371;BME280;16357;52.188;7.838;2023-03-01T01:54:28;102334.97;;;1.27;52.68
29371;BME280;16357;52.188;7.838;2023-03-01T01:57:01;102341.13;;;1.27;53.04
29371;BME280;16357;52.188;7.838;2023-03-01T01:59:31;102334.13;;;1.26;53.09
29371;BME280;16357;52.188;7.838;2023-03-01T02:02:00;102341.16;;;1.26;52.95
29371;BME280;16357;52.188;7.838;2023-03-01T02:04:31;102339.41;;;1.26;53.24
29371;BME280;16357;52.188;7.838;2023-03-01T02:07:05;102335.94;;;1.24;53.03
29371;BME280;16357;52.188;7.838;2023-03-01T02:09:33;102337.72;;;1.24;52.97
29371;BME280;16357;52.188;7.838;2023-03-01T02:12:01;102336.84;;;1.23;53.09
29371;BME280;16357;52.188;7.838;2023-03-01T02:14:28;102339.50;;;1.23;53.41
29371;BME280;16357;52.188;7.838;2023-03-01T02:16:54;102336.06;;;1.21;53.37
29371;BME280;16357;52.188;7.838;2023-03-01T02:22:30;102337.78;;;1.22;53.18
29371;BME280;16357;52.188;7.838;2023-03-01T02:30:18;102322.88;;;1.20;53.38
29371;BME280;16357;52.188;7.838;2023-03-01T02:32:45;102322.03;;;1.19;53.11
29371;BME280;16357;52.188;7.838;2023-03-01T02:35:14;102316.75;;;1.19;53.36
29371;BME280;16357;52.188;7.838;2023-03-01T02:37:43;102316.75;;;1.19;53.22
29371;BME280;16357;52.188;7.838;2023-03-01T02:40:16;102320.28;;;1.18;53.53
29371;BME280;16357;52.188;7.838;2023-03-01T02:42:54;102315.00;;;1.18;53.54
29371;BME280;16357;52.188;7.838;2023-03-01T02:45:22;102330.84;;;1.18;53.52
29371;BME280;16357;52.188;7.838;2023-03-01T02:47:49;102329.16;;;1.17;53.23
29371;BME280;16357;52.188;7.838;2023-03-01T02:50:25;102327.44;;;1.16;53.27
29371;BME280;16357;52.188;7.838;2023-03-01T02:53:14;102325.66;;;1.17;53.25
29371;BME280;16357;52.188;7.838;2023-03-01T02:55:43;102324.78;;;1.16;53.54
29371;BME280;16357;52.188;7.838;2023-03-01T02:58:09;102314.25;;;1.15;53.46
29371;BME280;16357;52.188;7.838;2023-03-01T03:00:38;102316.94;;;1.13;53.45
29371;BME280;16357;52.188;7.838;2023-03-01T03:03:13;102319.59;;;1.13;53.37
29371;BME280;16357;52.188;7.838;2023-03-01T03:05:41;102322.25;;;1.13;53.61
29371;BME280;16357;52.188;7.838;2023-03-01T03:08:08;102319.66;;;1.12;53.77
29371;BME280;16357;52.188;7.838;2023-03-01T03:10:40;102324.97;;;1.12;53.66
29371;BME280;16357;52.188;7.838;2023-03-01T03:13:10;102324.97;;;1.12;53.57
29371;BME280;16357;52.188;7.838;2023-03-01T03:15:37;102327.59;;;1.12;53.59
29371;BME280;16357;52.188;7.838;2023-03-01T03:18:07;102313.53;;;1.11;53.69
29371;BME280;16357;52.188;7.838;2023-03-01T03:20:34;102317.06;;;1.10;53.49
29371;BME280;16357;52.188;7.838;2023-03-01T03:23:01;102314.44;;;1.10;53.85
29371;BME280;16357;52.188;7.838;2023-03-01T03:25:28;102317.06;;;1.10;53.77
29371;BME280;16357;52.188;7.838;2023-03-01T03:27:56;102313.66;;;1.08;53.60
29371;BME280;16357;52.188;7.838;2023-03-01T03:30:30;102310.06;;;1.09;53.94
29371;BME280;16357;52.188;7.838;2023-03-01T03:32:58;102313.66;;;1.08;53.81
29371;BME280;16357;52.188;7.838;2023-03-01T03:35:31;102310.06;;;1.09;53.74
29371;BME280;16357;52.188;7.838;2023-03-01T03:38:01;102313.66;;;1.08;53.59
29371;BME280;16357;52.188;7.838;2023-03-01T03:40:39;102305.75;;;1.06;53.65
29371;BME280;16357;52.188;7.838;2023-03-01T03:43:07;102307.56;;;1.06;53.79
29371;BME280;16357;52.188;7.838;2023-03-01T03:45:35;102311.06;;;1.06;53.69
29371;BME280;16357;52.188;7.838;2023-03-01T03:48:04;102311.06;;;1.06;53.93
29371;BME280;16357;52.188;7.838;2023-03-01T03:50:31;102302.25;;;1.06;53.44
29371;BME280;16357;52.188;7.838;2023-03-01T03:52:59;102299.63;;;1.06;53.66
29371;BME280;16357;52.188;7.838;2023-03-01T03:55:26;102297.88;;;1.05;53.74
29371;BME280;16357;52.188;7.838;2023-03-01T03:57:58;102289.06;;;1.06;53.50
29371;BME280;16357;52.188;7.838;2023-03-01T04:00:28;102291.69;;;1.06;53.80
29371;BME280;16357;52.188;7.838;2023-03-01T04:02:55;102284.63;;;1.06;53.97
29371;BME280;16357;52.188;7.838;2023-03-01T04:05:22;102284.63;;;1.06;53.58
29371;BME280;16357;52.188;7.838;2023-03-01T04:07:49;102271.41;;;1.06;53.82
29371;BME280;16357;52.188;7.838;2023-03-01T04:10:29;102271.38;;;1.08;53.50
29371;BME280;16357;52.188;7.838;2023-03-01T04:12:56;102267.84;;;1.07;53.45
29371;BME280;16357;52.188;7.838;2023-03-01T04:15:24;102265.19;;;1.07;53.80
29371;BME280;16357;52.188;7.838;2023-03-01T04:17:52;102268.72;;;1.08;54.02
29371;BME280;16357;52.188;7.838;2023-03-01T04:20:22;102261.66;;;1.08;53.50
29371;BME280;16357;52.188;7.838;2023-03-01T04:23:06;102266.06;;;1.08;53.77
29371;BME280;16357;52.188;7.838;2023-03-01T04:28:22;102259.91;;;1.07;53.74
29371;BME280;16357;52.188;7.838;2023-03-01T04:30:52;102269.63;;;1.07;53.87
29371;BME280;16357;52.188;7.838;2023-03-01T04:33:18;102258.19;;;1.06;53.64
29371;BME280;16357;52.188;7.838;2023-03-01T04:35:46;102264.34;;;1.07;53.82
29371;BME280;16357;52.188;7.838;2023-03-01T04:38:17;102256.47;;;1.05;53.69
29371;BME280;16357;52.188;7.838;2023-03-01T04:40:43;102266.16;;;1.05;53.85
29371;BME280;16357;52.188;7.838;2023-03-01T04:43:11;102259.16;;;1.04;53.93
29371;BME280;16357;52.188;7.838;2023-03-01T04:45:40;102261.81;;;1.04;53.82
29371;BME280;16357;52.188;7.838;2023-03-01T04:48:06;102257.47;;;1.03;54.06
29371;BME280;16357;52.188;7.838;2023-03-01T04:50:33;102253.16;;;1.00;53.85
29371;BME280;16357;52.188;7.838;2023-03-01T04:52:59;102252.25;;;1.00;54.09
29371;BME280;16357;52.188;7.838;2023-03-01T04:55:27;102247.94;;;0.97;54.06
29371;BME280;16357;52.188;7.838;2023-03-01T04:57:54;102249.75;;;0.97;53.94
29371;BME280;16357;52.188;7.838;2023-03-01T05:00:21;102248.94;;;0.95;53.95
29371;BME280;16357;52.188;7.838;2023-03-01T05:03:00;102243.72;;;0.93;53.90
29371;BME280;16357;52.188;7.838;2023-03-01T05:05:30;102247.25;;;0.92;54.23
29371;BME280;16357;52.188;7.838;2023-03-01T05:07:59;102249.97;;;0.91;53.97
29371;BME280;16357;52.188;7.838;2023-03-01T05:10:27;102250.03;;;0.89;54.10
29371;BME280;16357;52.188;7.838;2023-03-01T05:12:56;102249.28;;;0.85;54.17
29371;BME280;16357;52.188;7.838;2023-03-01T05:15:27;102248.44;;;0.85;54.34
29371;BME280;16357;52.188;7.838;2023-03-01T05:17:55;102251.97;;;0.84;54.15
29371;BME280;16357;52.188;7.838;2023-03-01T05:20:26;102251.13;;;0.83;54.45
29371;BME280;16357;52.188;7.838;2023-03-01T05:22:56;102255.59;;;0.81;54.07
29371;BME280;16357;52.188;7.838;2023-03-01T05:25:22;102259.16;;;0.80;54.15
29371;BME280;16357;52.188;7.838;2023-03-01T05:27:49;102258.34;;;0.78;54.03
29371;BME280;16357;52.188;7.838;2023-03-01T05:30:16;102259.28;;;0.77;54.61
29371;BME280;16357;52.188;7.838;2023-03-01T05:32:46;102260.16;;;0.76;54.40
29371;BME280;16357;52.188;7.838;2023-03-01T05:35:14;102263.69;;;0.77;54.23
29371;BME280;16357;52.188;7.838;2023-03-01T05:37:46;102266.44;;;0.74;54.30
29371;BME280;16357;52.188;7.838;2023-03-01T05:40:20;102264.72;;;0.73;54.31
29371;BME280;16357;52.188;7.838;2023-03-01T05:42:53;102264.78;;;0.71;54.56
29371;BME280;16357;52.188;7.838;2023-03-01T05:45:22;102264.84;;;0.70;54.19
29371;BME280;16357;52.188;7.838;2023-03-01T05:47:49;102257.03;;;0.67;54.59
29371;BME280;16357;52.188;7.838;2023-03-01T05:50:21;102257.06;;;0.65;54.59
29371;BME280;16357;52.188;7.838;2023-03-01T05:53:05;102264.13;;;0.64;54.40
29371;BME280;16357;52.188;7.838;2023-03-01T05:55:34;102253.63;;;0.63;54.03
29371;BME280;16357;52.188;7.838;2023-03-01T05:58:03;102263.41;;;0.61;54.46
29371;BME280;16357;52.188;7.838;2023-03-01T06:00:30;102266.06;;;0.59;54.11
29371;BME280;16357;52.188;7.838;2023-03-01T06:02:58;102248.44;;;0.60;54.36
29371;BME280;16357;52.188;7.838;2023-03-01T06:05:25;102260.84;;;0.58;54.50
29371;BME280;16357;52.188;7.838;2023-03-01T06:07:52;102252.00;;;0.59;54.82
29371;BME280;16357;52.188;7.838;2023-03-01T06:10:20;102244.03;;;0.60;54.65
29371;BME280;16357;52.188;7.838;2023-03-01T06:12:47;102240.47;;;0.61;54.90
29371;BME280;16357;52.188;7.838;2023-03-01T06:15:15;102250.06;;;0.64;55.01
29371;BME280;16357;52.188;7.838;2023-03-01T06:17:43;102248.25;;;0.66;54.87
29371;BME280;16357;52.188;7.838;2023-03-01T06:20:16;102250.78;;;0.69;54.40
29371;BME280;16357;52.188;7.838;2023-03-01T06:22:43;102248.94;;;0.71;54.59
29371;BME280;16357;52.188;7.838;2023-03-01T06:25:11;102251.50;;;0.73;54.51
29371;BME280;16357;52.188;7.838;2023-03-01T06:27:38;102253.19;;;0.75;54.73
29371;BME280;16357;52.188;7.838;2023-03-01T06:30:06;102247.84;;;0.77;54.41
29371;BME280;16357;52.188;7.838;2023-03-01T06:32:33;102246.06;;;0.77;54.52
29371;BME280;16357;52.188;7.838;2023-03-01T06:35:00;102241.59;;;0.79;54.19
29371;BME280;16357;52.188;7.838;2023-03-01T06:37:26;102245.91;;;0.82;54.16
29371;BME280;16357;52.188;7.838;2023-03-01T06:39:53;102245.03;;;0.81;54.42
29371;BME280;16357;52.188;7.838;2023-03-01T06:42:19;102244.97;;;0.83;54.35
29371;BME280;16357;52.188;7.838;2023-03-01T06:44:45;102257.22;;;0.85;54.15
29371;BME280;16357;52.188;7.838;2023-03-01T06:47:12;102250.09;;;0.87;54.44
29371;BME280;16357;52.188;7.838;2023-03-01T06:49:39;102246.53;;;0.88;54.36
29371;BME280;16357;52.188;7.838;2023-03-01T06:52:05;102251.75;;;0.90;54.39
29371;BME280;16357;52.188;7.838;2023-03-01T06:54:31;102250.78;;;0.93;54.42
29371;BME280;16357;52.188;7.838;2023-03-01T06:56:58;102252.50;;;0.94;54.55
29371;BME280;16357;52.188;7.838;2023-03-01T06:59:24;102254.97;;;0.98;54.15
29371;BME280;16357;52.188;7.838;2023-03-01T07:01:51;102247.78;;;1.02;54.65
29371;BME280;16357;52.188;7.838;2023-03-01T07:04:17;102250.25;;;1.06;54.43
29371;BME280;16357;52.188;7.838;2023-03-01T07:06:43;102246.56;;;1.10;54.41
29371;BME280;16357;52.188;7.838;2023-03-01T07:09:10;102241.97;;;1.16;54.42
29371;BME280;16357;52.188;7.838;2023-03-01T07:11:36;102235.66;;;1.20;54.27
29371;BME280;16357;52.188;7.838;2023-03-01T07:14:03;102238.13;;;1.24;54.34
29371;BME280;16357;52.188;7.838;2023-03-01T07:16:29;102237.88;;;1.30;54.12
29371;BME280;16357;52.188;7.838;2023-03-01T07:18:56;102237.72;;;1.35;53.99
29371;BME280;16357;52.188;7.838;2023-03-01T07:21:25;102236.63;;;1.41;53.88
29371;BME280;16357;52.188;7.838;2023-03-01T07:23:51;102243.44;;;1.46;54.00
29371;BME280;16357;52.188;7.838;2023-03-01T07:26:17;102229.09;;;1.52;54.02
29371;BME280;16357;52.188;7.838;2023-03-01T07:28:44;102238.56;;;1.58;53.74
29371;BME280;16357;52.188;7.838;2023-03-01T07:31:10;102236.47;;;1.66;53.89
29371;BME280;16357;52.188;7.838;2023-03-01T07:33:36;102238.94;;;1.70;53.74
29371;BME280;16357;52.188;7.838;2023-03-01T07:36:04;102236.91;;;1.77;53.64
29371;BME280;16357;52.188;7.838;2023-03-01T07:38:30;102229.56;;;1.84;53.78
29371;BME280;16357;52.188;7.838;2023-03-01T07:40:59;102232.00;;;1.90;53.39
29371;BME280;16357;52.188;7.838;2023-03-01T07:43:27;102229.09;;;1.96;53.60
29371;BME280;16357;52.188;7.838;2023-03-01T07:45:54;102228.81;;;2.02;53.25
29371;BME280;16357;52.188;7.838;2023-03-01T07:48:20;102230.28;;;2.09;53.14
29371;BME280;16357;52.188;7.838;2023-03-01T07:50:47;102237.97;;;2.15;53.13
29371;BME280;16357;52.188;7.838;2023-03-01T07:53:13;102225.34;;;2.22;53.07
29371;BME280;16357;52.188;7.838;2023-03-01T07:55:39;102231.22;;;2.29;52.85
29371;BME280;16357;52.188;7.838;2023-03-01T07:58:06;102237.13;;;2.35;52.79
29371;BME280;16357;52.188;7.838;2023-03-01T08:00:32;102234.19;;;2.41;52.45
29371;BME280;16357;52.188;7.838;2023-03-01T08:03:00;102239.16;;;2.49;52.96
29371;BME280;16357;52.188;7.838;2023-03-01T08:05:28;102230.00;;;2.56;52.46
29371;BME280;16357;52.188;7.838;2023-03-01T08:07:54;102231.47;;;2.63;52.30
29371;BME280;16357;52.188;7.838;2023-03-01T08:10:21;102234.63;;;2.72;51.91
29371;BME280;16357;52.188;7.838;2023-03-01T08:12:47;102233.50;;;2.77;51.54
29371;BME280;16357;52.188;7.838;2023-03-01T08:15:13;102235.81;;;2.85;51.94
29371;BME280;16357;52.188;7.838;2023-03-01T08:17:40;102223.13;;;2.92;51.55
29371;BME280;16357;52.188;7.838;2023-03-01T08:20:06;102226.34;;;2.98;51.44
29371;BME280;16357;52.188;7.838;2023-03-01T08:22:33;102226.91;;;3.05;51.35
29371;BME280;16357;52.188;7.838;2023-03-01T08:25:00;102223.13;;;3.11;51.39
29371;BME280;16357;52.188;7.838;2023-03-01T08:27:26;102223.66;;;3.19;51.20
29371;BME280;16357;52.188;7.838;2023-03-01T08:29:53;102210.16;;;3.23;50.95
29371;BME280;16357;52.188;7.838;2023-03-01T08:32:19;102215.94;;;3.32;50.66
29371;BME280;16357;52.188;7.838;2023-03-01T08:34:47;102214.72;;;3.39;50.89
29371;BME280;16357;52.188;7.838;2023-03-01T08:37:13;102211.75;;;3.45;50.43
29371;BME280;16357;52.188;7.838;2023-03-01T08:39:40;102212.34;;;3.51;50.72
29371;BME280;16357;52.188;7.838;2023-03-01T08:42:06;102210.31;;;3.57;50.58
29371;BME280;16357;52.188;7.838;2023-03-01T08:44:32;102204.72;;;3.63;49.97
29371;BME280;16357;52.188;7.838;2023-03-01T08:46:59;102209.75;;;3.69;50.22
29371;BME280;16357;52.188;7.838;2023-03-01T08:49:26;102205.06;;;3.74;50.16
29371;BME280;16357;52.188;7.838;2023-03-01T08:51:52;102196.84;;;3.79;50.06
29371;BME280;16357;52.188;7.838;2023-03-01T08:54:20;102201.00;;;3.84;49.67
29371;BME280;16357;52.188;7.838;2023-03-01T08:56:48;102206.00;;;3.90;49.71
29371;BME280;16357;52.188;7.838;2023-03-01T08:59:16;102203.19;;;3.93;49.53
29371;BME280;16357;52.188;7.838;2023-03-01T09:01:43;102209.03;;;4.00;49.27
29371;BME280;16357;52.188;7.838;2023-03-01T09:04:10;102200.00;;;4.04;49.74
29371;BME280;16357;52.188;7.838;2023-03-01T09:06:37;102205.06;;;4.09;49.45
29371;BME280;16357;52.188;7.838;2023-03-01T09:09:05;102203.03;;;4.14;49.30
29371;BME280;16357;52.188;7.838;2023-03-01T09:11:31;102208.03;;;4.20;49.29
29371;BME280;16357;52.188;7.838;2023-03-01T09:13:59;102200.69;;;4.25;49.19
29371;BME280;16357;52.188;7.838;2023-03-01T09:16:25;102202.25;;;4.29;49.37
29371;BME280;16357;52.188;7.838;2023-03-01T09:18:53;102212.56;;;4.35;49.60
29371;BME280;16357;52.188;7.838;2023-03-01T09:21:22;102202.63;;;4.39;49.23
29371;BME280;16357;52.188;7.838;2023-03-01T09:24:06;102204.03;;;4.46;49.23
29371;BME280;16357;52.188;7.838;2023-03-01T09:26:33;102206.44;;;4.51;49.48
29371;BME280;16357;52.188;7.838;2023-03-01T09:28:59;102199.16;;;4.54;49.08
29371;BME280;16357;52.188;7.838;2023-03-01T09:31:26;102203.28;;;4.60;48.84
29371;BME280;16357;52.188;7.838;2023-03-01T09:33:53;102198.59;;;4.65;49.08
29371;BME280;16357;52.188;7.838;2023-03-01T09:36:22;102200.03;;;4.71;48.82
29371;BME280;16357;52.188;7.838;2023-03-01T09:38:50;102197.16;;;4.75;48.33
29371;BME280;16357;52.188;7.838;2023-03-01T09:47:01;102187.38;;;4.92;47.87
29371;BME280;16357;52.188;7.838;2023-03-01T09:49:31;102179.25;;;4.95;47.98
29371;BME280;16357;52.188;7.838;2023-03-01T09:54:33;102177.03;;;5.03;47.47
29371;BME280;16357;52.188;7.838;2023-03-01T09:57:55;102172.41;;;5.06;47.20
29371;BME280;16357;52.188;7.838;2023-03-01T10:00:30;102175.66;;;5.12;47.09
29371;BME280;16357;52.188;7.838;2023-03-01T10:08:31;102175.00;;;5.24;47.53
29371;BME280;16357;52.188;7.838;2023-03-01T10:11:04;102167.56;;;5.29;47.17
29371;BME280;16357;52.188;7.838;2023-03-01T10:16:42;102165.94;;;5.42;46.95
29371;BME280;16357;52.188;7.838;2023-03-01T10:19:20;102175.38;;;5.48;46.86
29371;BME280;16357;52.188;7.838;2023-03-01T10:21:50;102175.81;;;5.56;47.23
29371;BME280;16357;52.188;7.838;2023-03-01T10:24:18;102167.44;;;5.62;46.95
29371;BME280;16357;52.188;7.838;2023-03-01T10:26:57;102166.06;;;5.71;46.97
29371;BME280;16357;52.188;7.838;2023-03-01T10:29:34;102158.38;;;5.81;47.13
29371;BME280;16357;52.188;7.838;2023-03-01T10:32:05;102150.91;;;5.87;46.49
29371;BME280;16357;52.188;7.838;2023-03-01T10:34:36;102148.56;;;5.97;46.30
29371;BME280;16357;52.188;7.838;2023-03-01T10:37:12;102138.31;;;6.05;46.17
29371;BME280;16357;52.188;7.838;2023-03-01T10:39:58;102130.72;;;6.13;46.58
29371;BME280;16357;52.188;7.838;2023-03-01T10:42:32;102131.13;;;6.22;46.09
29371;BME280;16357;52.188;7.838;2023-03-01T10:48:26;102122.91;;;6.39;45.08
29371;BME280;16357;52.188;7.838;2023-03-01T10:53:32;102128.47;;;6.50;45.04
29371;BME280;16357;52.188;7.838;2023-03-01T10:56:05;102121.88;;;6.56;44.58
29371;BME280;16357;52.188;7.838;2023-03-01T10:58:34;102128.72;;;6.60;44.82
29371;BME280;16357;52.188;7.838;2023-03-01T11:01:24;102128.34;;;6.66;44.77
29371;BME280;16357;52.188;7.838;2023-03-01T11:06:33;102130.22;;;6.78;43.91
29371;BME280;16357;52.188;7.838;2023-03-01T11:11:41;102133.94;;;6.90;43.72
29371;BME280;16357;52.188;7.838;2023-03-01T11:14:20;102126.50;;;6.95;43.42
29371;BME280;16357;52.188;7.838;2023-03-01T11:17:05;102118.16;;;7.00;43.66
29371;BME280;16357;52.188;7.838;2023-03-01T11:19:32;102124.19;;;7.03;43.12
29371;BME280;16357;52.188;7.838;2023-03-01T11:22:19;102122.06;;;7.09;43.64
29371;BME280;16357;52.188;7.838;2023-03-01T11:24:49;102123.56;;;7.13;43.57
29371;BME280;16357;52.188;7.838;2023-03-01T11:27:37;102120.53;;;7.19;43.83
29371;BME280;16357;52.188;7.838;2023-03-01T11:30:53;102122.88;;;7.23;43.13
29371;BME280;16357;52.188;7.838;2023-03-01T11:35:44;102116.53;;;7.39;43.98
29371;BME280;16357;52.188;7.838;2023-03-01T11:38:23;102115.03;;;7.47;43.72
29371;BME280;16357;52.188;7.838;2023-03-01T11:40:58;102100.25;;;7.56;43.88
29371;BME280;16357;52.188;7.838;2023-03-01T11:59:50;102080.19;;;7.89;41.67
29371;BME280;16357;52.188;7.838;2023-03-01T12:02:40;102080.31;;;7.87;40.93
29371;BME280;16357;52.188;7.838;2023-03-01T12:05:23;102075.06;;;7.86;40.95
29371;BME280;16357;52.188;7.838;2023-03-01T12:13:36;102070.56;;;7.86;41.28
29371;BME280;16357;52.188;7.838;2023-03-01T12:16:18;102064.06;;;7.90;41.88
29371;BME280;16357;52.188;7.838;2023-03-01T12:19:18;102064.59;;;7.96;41.65
29371;BME280;16357;52.188;7.838;2023-03-01T12:22:04;102060.75;;;8.00;41.00
29371;BME280;16357;52.188;7.838;2023-03-01T12:30:31;102037.44;;;8.02;40.64
29371;BME280;16357;52.188;7.838;2023-03-01T12:33:22;102048.75;;;8.05;40.78
29371;BME280;16357;52.188;7.838;2023-03-01T12:38:49;102040.66;;;8.07;40.61
29371;BME280;16357;52.188;7.838;2023-03-01T12:41:42;102040.56;;;8.08;39.57
29371;BME280;16357;52.188;7.838;2023-03-01T12:47:11;102033.25;;;8.10;39.88
29371;BME280;16357;52.188;7.838;2023-03-01T12:49:57;102027.69;;;8.13;40.09
29371;BME280;16357;52.188;7.838;2023-03-01T12:52:42;102019.56;;;8.15;39.23
29371;BME280;16357;52.188;7.838;2023-03-01T12:55:29;102026.44;;;8.19;39.50
29371;BME280;16357;52.188;7.838;2023-03-01T12:58:05;102019.88;;;8.23;39.41
29371;BME280;16357;52.188;7.838;2023-03-01T13:00:40;102007.25;;;8.25;39.49
29371;BME280;16357;52.188;7.838;2023-03-01T13:03:31;102001.59;;;8.30;39.48
29371;BME280;16357;52.188;7.838;2023-03-01T13:06:39;101997.63;;;8.35;39.86
29371;BME280;16357;52.188;7.838;2023-03-01T13:09:58;101993.56;;;8.43;40.10
29371;BME280;16357;52.188;7.838;2023-03-01T13:17:52;101987.72;;;8.62;39.17
29371;BME280;16357;52.188;7.838;2023-03-01T13:20:22;101986.66;;;8.64;39.01
29371;BME280;16357;52.188;7.838;2023-03-01T13:23:02;101990.06;;;8.66;38.89
29371;BME280;16357;52.188;7.838;2023-03-01T13:25:28;101981.91;;;8.68;39.04
29371;BME280;16357;52.188;7.838;2023-03-01T13:31:03;101981.34;;;8.75;39.09
29371;BME280;16357;52.188;7.838;2023-03-01T13:36:00;101968.38;;;8.82;39.49
29371;BME280;16357;52.188;7.838;2023-03-01T13:38:44;101959.97;;;8.87;39.25
29371;BME280;16357;52.188;7.838;2023-03-01T13:41:47;101956.13;;;8.91;38.71
29371;BME280;16357;52.188;7.838;2023-03-01T13:44:01;101962.94;;;8.95;38.09
29371;BME280;16357;52.188;7.838;2023-03-01T13:46:38;101952.13;;;8.96;38.23
29371;BME280;16357;52.188;7.838;2023-03-01T13:49:04;101957.38;;;8.98;37.65
29371;BME280;16357;52.188;7.838;2023-03-01T13:51:30;101948.38;;;8.99;38.02
29371;BME280;16357;52.188;7.838;2023-03-01T13:53:58;101952.72;;;9.00;37.48
29371;BME280;16357;52.188;7.838;2023-03-01T13:56:27;101947.38;;;9.00;37.74
29371;BME280;16357;52.188;7.838;2023-03-01T13:59:02;101947.38;;;9.00;37.99
29371;BME280;16357;52.188;7.838;2023-03-01T14:01:33;101943.00;;;8.99;37.21
29371;BME280;16357;52.188;7.838;2023-03-01T14:04:01;101943.00;;;8.99;37.21
29371;BME280;16357;52.188;7.838;2023-03-01T14:06:30;101921.59;;;8.99;37.31
29371;BME280;16357;52.188;7.838;2023-03-01T14:09:19;101932.31;;;8.99;37.28
29371;BME280;16357;52.188;7.838;2023-03-01T14:14:45;101922.94;;;8.93;37.43
29371;BME280;16357;52.188;7.838;2023-03-01T14:20:41;101930.31;;;8.90;37.88
29371;BME280;16357;52.188;7.838;2023-03-01T14:23:18;101920.69;;;8.87;37.40
29371;BME280;16357;52.188;7.838;2023-03-01T14:25:48;101917.16;;;8.87;37.63
29371;BME280;16357;52.188;7.838;2023-03-01T14:28:24;101908.28;;;8.86;37.69
29371;BME280;16357;52.188;7.838;2023-03-01T14:30:54;101903.06;;;8.85;37.34
29371;BME280;16357;52.188;7.838;2023-03-01T14:33:31;101908.44;;;8.85;37.25
29371;BME280;16357;52.188;7.838;2023-03-01T14:36:11;101901.25;;;8.85;37.31
29371;BME280;16357;52.188;7.838;2023-03-01T14:38:43;101903.06;;;8.85;37.02
29371;BME280;16357;52.188;7.838;2023-03-01T14:41:16;101897.72;;;8.85;37.21
29371;BME280;16357;52.188;7.838;2023-03-01T14:43:57;101896.97;;;8.83;37.54
29371;BME280;16357;52.188;7.838;2023-03-01T14:46:31;101888.81;;;8.84;37.49
29371;BME280;16357;52.188;7.838;2023-03-01T14:51:39;101883.47;;;8.84;37.17
29371;BME280;16357;52.188;7.838;2023-03-01T14:54:21;101881.66;;;8.85;37.72
29371;BME280;16357;52.188;7.838;2023-03-01T14:56:48;101873.66;;;8.85;37.20